EDT,Max TemperatureF,Mean TemperatureF,Min TemperatureF,Max Dew PointF,MeanDew PointF,Min DewpointF,Max Humidity, Mean Humidity, Min Humidity, Max Sea Level PressureIn, Mean Sea Level PressureIn, Min Sea Level PressureIn, Max VisibilityMiles, Mean VisibilityMiles, Min VisibilityMiles, Max Wind SpeedMPH, Mean Wind SpeedMPH, Max Gust SpeedMPH,PrecipitationIn, CloudCover, Events, WindDirDegrees
2013-10-1,75,63,51,64,57,52,100,88,43,30.03,29.99,29.92,15,7,0,20,6,28,0.00,4,Fog,234
2013-10-2,75,65,55,61,53,37,100,67,31,30.09,30.00,29.92,15,14,7,16,11,21,0.00,2,,278
2013-10-3,66,54,43,54,46,37,87,64,44,30.13,30.08,30.02,15,15,15,9,4,,0.39,5,,44
2013-10-4,67,62,58,66,61,57,100,98,94,30.08,30.02,29.99,6,2,0,13,6,,0.24,8,Fog-Rain-Thunderstorm,45
2013-10-5,61,58,56,59,57,55,100,94,83,30.11,30.07,30.02,15,8,2,20,13,23,0.71,8,Rain-Thunderstorm,49
2013-10-6,77,67,57,68,61,55,100,92,65,30.00,29.86,29.69,15,5,0,17,11,25,0.12,8,Fog-Rain-Hail,69
2013-10-7,62,55,48,64,50,39,100,82,41,30.06,29.77,29.66,15,11,5,30,14,39,0.55,6,Rain,239
2013-10-8,64,52,40,50,45,41,100,80,38,30.34,30.25,30.08,15,12,0,8,5,,0.00,2,Fog,226
2013-10-9,65,54,43,50,46,43,93,78,48,30.39,30.34,30.29,15,15,15,12,5,,0.00,1,,69
2013-10-10,64,56,48,55,50,46,100,90,54,30.29,30.24,30.18,15,7,0,10,7,,0.00,5,Fog,34
2013-10-11,64,54,44,54,48,45,100,82,56,30.19,30.15,30.14,15,14,8,13,9,,0.00,2,,39
2013-10-12,67,56,45,56,50,43,94,83,58,30.19,30.15,30.13,15,13,4,14,9,,0.00,2,,45
2013-10-13,64,59,54,63,58,50,100,89,77,30.31,30.23,30.15,15,9,2,14,7,,0.16,8,Rain,211
2013-10-14,62,52,43,46,45,41,100,76,45,30.38,30.33,30.30,15,15,15,9,6,,0.00,4,,353
2013-10-15,65,54,42,57,50,41,100,85,61,30.31,30.13,29.92,15,14,8,10,7,,0.00,6,,57
2013-10-16,68,60,50,63,57,44,100,86,55,29.90,29.81,29.74,15,12,4,22,12,31,0.28,6,Rain,216
2013-10-17,62,54,47,52,48,45,100,85,45,29.88,29.81,29.73,15,11,3,17,8,24,0.31,7,Rain,230
2013-10-18,58,50,42,46,43,39,93,79,42,29.90,29.84,29.73,15,14,9,18,11,25,0.00,4,,237
2013-10-19,48,44,41,45,42,39,94,89,82,29.87,29.78,29.69,15,11,2,13,6,,0.28,7,Rain,235
2013-10-20,55,44,34,41,37,34,93,76,36,29.97,29.89,29.80,15,15,15,15,10,23,0.00,4,,236
2013-10-21,59,51,43,48,46,41,94,77,54,29.93,29.86,29.78,15,13,4,23,13,32,0.16,8,Rain,212
2013-10-22,45,40,34,43,31,27,87,69,40,29.86,29.83,29.77,15,15,10,23,12,30,0.00,4,Rain,241
2013-10-23,48,40,32,37,32,25,93,77,46,29.85,29.79,29.74,15,14,7,16,6,24,0.02,6,Rain,272
2013-10-24,46,38,29,36,32,27,93,85,45,30.05,29.92,29.83,15,15,15,20,11,29,0.03,5,Rain,255
2013-10-25,47,40,32,37,34,28,100,81,57,30.23,30.17,30.06,15,14,5,16,9,23,0.03,6,Rain,259
2013-10-26,44,39,34,39,36,27,93,81,45,30.10,29.85,29.76,15,12,3,25,15,41,0.39,8,Rain,235
2013-10-27,46,40,33,37,33,28,100,80,53,30.05,29.98,29.86,15,15,15,14,9,23,0.00,5,Rain,251
2013-10-28,46,39,32,36,28,21,81,66,39,30.41,30.23,30.03,15,15,15,16,8,24,0.00,3,,353
2013-10-29,43,36,28,36,29,21,87,73,52,30.49,30.42,30.32,15,15,12,13,7,,0.08,6,Rain,49
2013-10-30,53,44,35,41,38,35,100,87,58,30.30,30.20,30.08,15,11,0,12,6,,0.00,5,Fog-Rain,55
2013-10-31,62,50,38,59,51,37,100,93,81,30.07,29.75,29.29,15,6,1,26,11,43,0.47,8,Fog-Rain,169